createdAt,value
2019-04-20T00:00:50.951Z,5.70
2019-04-20T00:03:18.715Z,6.57
2019-04-20T00:05:50.936Z,6.20
2019-04-20T00:08:25.186Z,6.70
2019-04-20T00:11:01.402Z,6.40
2019-04-20T00:13:34.575Z,8.87
2019-04-20T00:15:55.813Z,6.00
2019-04-20T00:18:32.702Z,7.93
2019-04-20T00:21:05.614Z,6.20
2019-04-20T00:23:43.740Z,6.13
2019-04-20T00:27:09.248Z,6.33
2019-04-20T00:29:30.891Z,6.43
2019-04-20T00:31:55.549Z,5.80
2019-04-20T00:34:21.295Z,6.57
2019-04-20T00:36:47.606Z,6.00
2019-04-20T00:39:18.868Z,6.20
2019-04-20T00:41:55.122Z,5.77
2019-04-20T00:44:27.845Z,6.03
2019-04-20T00:47:04.320Z,5.63
2019-04-20T00:49:36.030Z,6.63
2019-04-20T00:52:24.280Z,5.70
2019-04-20T00:54:28.426Z,6.03
2019-04-20T00:57:09.365Z,5.97
2019-04-20T00:59:51.437Z,5.20
2019-04-20T01:02:16.868Z,6.00
2019-04-20T01:04:56.477Z,6.17
2019-04-20T01:07:46.822Z,5.63
2019-04-20T01:10:15.203Z,5.87
2019-04-20T01:12:47.132Z,6.13
2019-04-20T01:15:30.146Z,5.27
2019-04-20T01:17:49.168Z,5.80
2019-04-20T01:20:19.071Z,5.67
2019-04-20T01:22:58.652Z,5.60
2019-04-20T01:25:28.351Z,5.23
2019-04-20T01:28:08.109Z,6.13
2019-04-20T01:30:32.217Z,5.30
2019-04-20T01:33:12.745Z,5.87
2019-04-20T01:35:48.024Z,5.50
2019-04-20T01:38:16.828Z,6.47
2019-04-20T01:40:33.635Z,5.70
2019-04-20T01:43:05.795Z,5.33
2019-04-20T01:45:39.210Z,6.37
2019-04-20T01:48:08.275Z,5.43
2019-04-20T01:50:47.831Z,5.60
2019-04-20T01:53:21.487Z,6.23
2019-04-20T01:55:58.655Z,5.53
2019-04-20T01:58:50.644Z,5.20
2019-04-20T02:01:23.884Z,5.80
2019-04-20T02:04:06.398Z,5.93
2019-04-20T02:06:43.568Z,5.10
2019-04-20T02:09:13.645Z,5.50
2019-04-20T02:11:44.781Z,5.70
2019-04-20T02:14:13.733Z,5.90
2019-04-20T02:16:49.223Z,5.47
2019-04-20T02:19:30.504Z,5.53
2019-04-20T02:21:59.160Z,6.37
2019-04-20T02:24:17.857Z,5.53
2019-04-20T02:26:51.964Z,6.10
2019-04-20T02:29:44.595Z,6.63
2019-04-20T02:32:22.816Z,6.07
2019-04-20T02:34:59.891Z,5.83
2019-04-20T02:45:34.850Z,5.03
2019-04-20T02:47:48.831Z,5.47
2019-04-20T02:57:53.070Z,5.77
2019-04-20T03:00:19.440Z,5.93
2019-04-20T03:02:41.436Z,5.90
2019-04-20T03:05:06.735Z,6.00
2019-04-20T03:07:47.984Z,5.33
2019-04-20T03:10:17.464Z,5.90
2019-04-20T03:12:50.296Z,5.83
2019-04-20T03:15:22.619Z,5.30
2019-04-20T03:17:58.871Z,5.73
2019-04-20T03:20:29.979Z,5.83
2019-04-20T03:23:18.663Z,5.90
2019-04-20T03:26:12.826Z,5.40
2019-04-20T03:29:01.313Z,5.13
2019-04-20T03:32:19.468Z,5.83
2019-04-20T03:34:50.472Z,5.43
2019-04-20T03:36:56.708Z,6.00
2019-04-20T03:39:15.095Z,6.17
2019-04-20T03:41:34.952Z,5.90
2019-04-20T03:44:03.134Z,6.33
2019-04-20T03:46:39.637Z,6.67
2019-04-20T03:49:20.084Z,5.13
2019-04-20T03:52:01.184Z,6.03
2019-04-20T03:54:32.112Z,6.10
2019-04-20T03:57:26.632Z,5.73
2019-04-20T04:00:04.697Z,6.40
2019-04-20T04:03:17.625Z,5.57
2019-04-20T04:05:32.453Z,6.27
2019-04-20T04:08:00.097Z,6.03
2019-04-20T04:10:30.420Z,6.07
2019-04-20T04:13:12.508Z,5.60
2019-04-20T04:15:50.801Z,5.87
2019-04-20T04:18:25.459Z,5.90
2019-04-20T04:20:54.144Z,5.80
2019-04-20T04:23:38.175Z,5.70
2019-04-20T04:26:08.586Z,5.83
2019-04-20T04:28:41.082Z,5.80
2019-04-20T04:31:12.186Z,5.50
2019-04-20T04:33:55.767Z,5.63
2019-04-20T04:36:15.599Z,7.43
2019-04-20T04:38:47.520Z,5.83
2019-04-20T04:41:25.620Z,5.13
2019-04-20T04:43:50.590Z,5.67
2019-04-20T04:46:03.775Z,5.63
2019-04-20T04:48:40.083Z,6.97
2019-04-20T04:51:11.950Z,23.17
2019-04-20T04:53:47.812Z,13.73
2019-04-20T04:56:14.139Z,10.83
2019-04-20T04:58:40.592Z,11.10
2019-04-20T05:01:16.428Z,11.07
2019-04-20T05:04:09.853Z,10.20
2019-04-20T05:06:32.996Z,10.50
2019-04-20T05:08:56.815Z,10.13
2019-04-20T05:11:23.707Z,10.77
2019-04-20T05:14:01.599Z,10.27
2019-04-20T05:16:46.047Z,9.70
2019-04-20T05:19:19.238Z,11.43
2019-04-20T05:22:08.210Z,11.10
2019-04-20T05:24:53.742Z,11.63
2019-04-20T05:27:40.747Z,10.67
2019-04-20T05:29:50.893Z,17.37
2019-04-20T05:32:33.737Z,14.30
2019-04-20T05:35:17.709Z,13.57
2019-04-20T05:37:49.887Z,12.50
2019-04-20T05:40:18.988Z,13.30
2019-04-20T05:43:11.573Z,12.00
2019-04-20T05:45:34.619Z,11.77
2019-04-20T05:48:08.266Z,11.13
2019-04-20T05:50:43.057Z,11.73
2019-04-20T05:53:24.597Z,12.17
2019-04-20T05:55:49.247Z,13.63
2019-04-20T05:58:24.645Z,10.37
2019-04-20T06:00:57.121Z,8.73
2019-04-20T06:03:22.794Z,8.73
2019-04-20T06:05:58.069Z,9.60
2019-04-20T06:08:39.068Z,10.03
2019-04-20T06:10:56.214Z,10.83
2019-04-20T06:13:29.939Z,10.57
2019-04-20T06:16:18.615Z,13.67
2019-04-20T06:18:57.965Z,14.90
2019-04-20T06:21:39.534Z,11.43
2019-04-20T06:24:24.914Z,12.10
2019-04-20T06:26:51.929Z,12.30
2019-04-20T06:29:05.159Z,13.47
2019-04-20T06:31:42.500Z,16.17
2019-04-20T06:34:31.067Z,14.27
2019-04-20T06:36:55.844Z,11.73
2019-04-20T06:44:34.336Z,12.30
2019-04-20T06:49:35.445Z,9.87
2019-04-20T06:52:29.668Z,11.73
2019-04-20T06:55:01.575Z,10.30
2019-04-20T06:57:49.601Z,10.17
2019-04-20T07:00:14.179Z,14.03
2019-04-20T07:02:44.333Z,12.23
2019-04-20T07:05:11.831Z,11.93
2019-04-20T07:07:48.059Z,12.47
2019-04-20T07:10:19.412Z,11.40
2019-04-20T07:12:42.543Z,12.07
2019-04-20T07:15:16.282Z,11.23
2019-04-20T07:17:57.557Z,10.63
2019-04-20T07:20:39.626Z,11.53
2019-04-20T07:25:44.612Z,10.57
2019-04-20T07:28:12.811Z,11.67
2019-04-20T07:30:46.458Z,12.80
2019-04-20T07:33:16.051Z,11.63
2019-04-20T07:35:49.280Z,11.20
2019-04-20T07:40:50.671Z,11.33
2019-04-20T07:43:21.374Z,11.03
2019-04-20T07:45:49.078Z,10.70
2019-04-20T07:48:29.582Z,10.33
2019-04-20T07:50:48.672Z,10.70
2019-04-20T07:53:26.024Z,9.43
2019-04-20T07:55:58.175Z,10.20
2019-04-20T07:58:25.161Z,10.10
2019-04-20T08:01:23.608Z,8.97
2019-04-20T08:03:55.582Z,10.87
2019-04-20T08:06:35.361Z,8.73
2019-04-20T08:09:12.767Z,9.43
2019-04-20T08:14:27.191Z,8.23
2019-04-20T08:17:09.662Z,8.57
2019-04-20T08:19:23.445Z,8.73
2019-04-20T08:21:52.521Z,8.20
2019-04-20T08:24:22.942Z,8.30
2019-04-20T08:26:49.691Z,8.37
2019-04-20T08:29:41.724Z,8.97
2019-04-20T08:32:34.533Z,7.77
2019-04-20T08:35:17.958Z,8.17
2019-04-20T08:37:38.670Z,8.70
2019-04-20T08:40:13.225Z,8.50
2019-04-20T08:42:59.353Z,8.60
2019-04-20T08:45:16.348Z,8.80
2019-04-20T08:47:50.252Z,8.73
2019-04-20T08:50:22.447Z,8.57
2019-04-20T08:55:19.812Z,9.10
2019-04-20T08:57:33.572Z,9.00
2019-04-20T09:00:05.506Z,7.33
2019-04-20T09:02:36.920Z,6.83
2019-04-20T09:05:18.482Z,7.30
2019-04-20T09:07:53.578Z,8.07
2019-04-20T09:10:34.479Z,9.23
2019-04-20T09:12:57.320Z,8.20
2019-04-20T09:15:14.842Z,7.97
2019-04-20T09:18:00.999Z,9.77
2019-04-20T09:20:37.024Z,9.33
2019-04-20T09:23:16.893Z,9.67
2019-04-20T09:28:36.354Z,9.53
2019-04-20T09:31:17.298Z,9.20
2019-04-20T09:34:14.294Z,9.30
2019-04-20T09:37:01.134Z,8.87
2019-04-20T09:39:35.768Z,7.33
2019-04-20T09:42:13.837Z,7.53
2019-04-20T09:44:47.794Z,7.17
2019-04-20T09:47:25.866Z,7.50
2019-04-20T09:49:58.088Z,7.87
2019-04-20T09:52:32.363Z,6.97
2019-04-20T09:55:02.741Z,4.97
2019-04-20T09:57:39.066Z,5.00
2019-04-20T10:00:11.865Z,5.33
2019-04-20T10:02:29.805Z,5.40
2019-04-20T10:04:58.192Z,5.63
2019-04-20T10:07:32.604Z,6.07
2019-04-20T10:10:14.888Z,6.50
2019-04-20T10:12:33.523Z,5.60
2019-04-20T10:15:10.735Z,5.53
2019-04-20T10:17:35.753Z,5.20
2019-04-20T10:20:10.875Z,5.40
2019-04-20T10:22:38.987Z,5.43
2019-04-20T10:25:12.833Z,5.20
2019-04-20T10:27:45.346Z,5.03
2019-04-20T10:30:16.597Z,4.77
2019-04-20T10:32:50.566Z,4.13
2019-04-20T10:35:21.338Z,4.37
2019-04-20T10:37:55.680Z,4.70
2019-04-20T10:40:39.298Z,4.90
2019-04-20T10:42:59.786Z,4.20
2019-04-20T10:45:30.884Z,3.87
2019-04-20T10:48:03.421Z,4.13
2019-04-20T10:50:36.536Z,3.73
2019-04-20T10:53:07.845Z,4.37
2019-04-20T10:55:39.628Z,4.40
2019-04-20T10:58:09.692Z,3.87
2019-04-20T11:00:44.036Z,3.47
2019-04-20T11:03:15.725Z,3.93
2019-04-20T11:05:46.806Z,3.43
2019-04-20T11:08:16.846Z,4.30
2019-04-20T11:10:57.868Z,3.60
2019-04-20T11:13:19.381Z,3.83
2019-04-20T11:15:51.007Z,3.70
2019-04-20T11:18:21.749Z,3.73
2019-04-20T11:20:51.493Z,5.20
2019-04-20T11:23:22.443Z,6.37
2019-04-20T11:25:54.069Z,4.43
2019-04-20T11:28:25.962Z,3.97
2019-04-20T11:30:56.329Z,3.67
2019-04-20T11:33:26.119Z,3.20
2019-04-20T11:35:57.160Z,3.20
2019-04-20T11:38:30.117Z,2.80
2019-04-20T11:41:10.557Z,2.60
2019-04-20T11:43:33.643Z,3.07
2019-04-20T11:46:04.700Z,3.07
2019-04-20T11:48:34.947Z,3.33
2019-04-20T11:51:05.512Z,2.77
2019-04-20T11:53:36.395Z,2.90
2019-04-20T11:56:13.599Z,2.60
2019-04-20T11:58:38.818Z,3.07
2019-04-20T12:01:37.127Z,2.80
2019-04-20T12:04:20.027Z,3.90
2019-04-20T12:06:39.308Z,2.93
2019-04-20T12:09:11.043Z,2.80
2019-04-20T12:11:56.361Z,3.20
2019-04-20T12:14:12.605Z,2.70
2019-04-20T12:16:43.634Z,2.57
2019-04-20T12:19:14.698Z,2.50
2019-04-20T12:21:45.633Z,2.70
2019-04-20T12:24:16.395Z,3.03
2019-04-20T12:26:47.006Z,2.77
2019-04-20T12:29:16.787Z,2.97
2019-04-20T12:31:51.187Z,3.20
2019-04-20T12:34:20.419Z,2.67
2019-04-20T12:36:51.281Z,2.97
2019-04-20T12:39:22.922Z,2.20
2019-04-20T12:41:58.787Z,2.60
2019-04-20T12:44:26.007Z,2.17
2019-04-20T12:46:56.126Z,2.27
2019-04-20T12:49:27.594Z,2.40
2019-04-20T12:52:01.142Z,2.17
2019-04-20T12:54:29.768Z,2.30
2019-04-20T12:57:00.493Z,2.60
2019-04-20T12:59:31.566Z,2.20
2019-04-20T13:02:01.655Z,2.53
2019-04-20T13:04:33.148Z,2.50
2019-04-20T13:07:03.888Z,2.60
2019-04-20T13:09:37.274Z,2.20
2019-04-20T13:12:17.424Z,1.97
2019-04-20T13:15:24.635Z,2.40
2019-04-20T13:17:56.909Z,2.00
2019-04-20T13:20:28.052Z,2.00
2019-04-20T13:23:00.907Z,2.17
2019-04-20T13:25:30.833Z,2.20
2019-04-20T13:28:01.043Z,2.13
2019-04-20T13:30:32.140Z,3.60
2019-04-20T13:33:01.956Z,2.00
2019-04-20T13:35:32.190Z,2.23
2019-04-20T13:38:02.384Z,1.83
2019-04-20T13:40:33.448Z,2.10
2019-04-20T13:43:03.551Z,2.60
2019-04-20T13:45:33.421Z,2.43
2019-04-20T13:48:04.139Z,2.53
2019-04-20T13:50:34.259Z,2.70
2019-04-20T13:53:05.188Z,2.00
2019-04-20T13:55:35.948Z,1.93
2019-04-20T13:58:27.689Z,2.23
2019-04-20T14:01:14.672Z,2.70
2019-04-20T14:03:45.012Z,2.50
2019-04-20T14:06:14.764Z,1.90
2019-04-20T14:08:47.334Z,2.00
2019-04-20T14:11:17.700Z,2.17
2019-04-20T14:13:54.621Z,2.13
2019-04-20T14:16:19.016Z,2.67
2019-04-20T14:18:49.188Z,2.60
2019-04-20T14:21:20.326Z,2.07
2019-04-20T14:23:53.019Z,1.90
2019-04-20T14:26:23.162Z,2.20
2019-04-20T14:28:56.790Z,3.07
2019-04-20T14:31:27.936Z,2.40
2019-04-20T14:33:57.611Z,2.17
2019-04-20T14:36:28.693Z,2.00
2019-04-20T14:38:58.472Z,2.13
2019-04-20T14:41:28.473Z,1.83
2019-04-20T14:43:59.272Z,2.50
2019-04-20T14:46:29.528Z,2.37
2019-04-20T14:49:00.686Z,2.77
2019-04-20T14:51:31.761Z,1.80
2019-04-20T14:54:03.517Z,2.00
2019-04-20T14:56:33.593Z,2.43
2019-04-20T14:59:13.583Z,2.30
2019-04-20T15:02:06.538Z,2.37
2019-04-20T15:04:37.087Z,2.10
2019-04-20T15:07:06.762Z,1.80
2019-04-20T15:09:39.348Z,2.67
2019-04-20T15:12:10.915Z,2.73
2019-04-20T15:14:40.935Z,2.03
2019-04-20T15:17:12.351Z,2.50
2019-04-20T15:20:07.518Z,1.90
2019-04-20T15:22:51.697Z,1.90
2019-04-20T15:25:21.799Z,2.00
2019-04-20T15:27:54.487Z,1.90
2019-04-20T15:30:24.503Z,2.00
2019-04-20T15:32:56.775Z,2.37
2019-04-20T15:35:28.097Z,2.40
2019-04-20T15:37:59.687Z,1.90
2019-04-20T15:40:29.337Z,2.10
2019-04-20T15:43:08.285Z,2.27
2019-04-20T15:45:31.474Z,2.07
2019-04-20T15:48:01.810Z,2.03
2019-04-20T15:50:31.846Z,2.42
2019-04-20T15:53:02.645Z,2.47
2019-04-20T15:55:38.013Z,2.22
2019-04-20T15:58:06.418Z,2.25
2019-04-20T16:00:36.414Z,1.98
2019-04-20T16:03:25.542Z,2.37
2019-04-20T16:06:01.243Z,1.95
2019-04-20T16:08:38.932Z,2.00
2019-04-20T16:11:11.218Z,1.70
2019-04-20T16:13:44.605Z,1.85
2019-04-20T16:16:14.000Z,1.70
2019-04-20T16:18:45.224Z,1.80
2019-04-20T16:21:20.832Z,2.62
2019-04-20T16:24:01.214Z,2.12
2019-04-20T16:26:35.762Z,1.98
2019-04-20T16:29:06.127Z,1.90
2019-04-20T16:31:36.314Z,2.40
2019-04-20T16:34:07.453Z,2.02
2019-04-20T16:36:38.761Z,2.10
2019-04-20T16:39:10.873Z,2.47
2019-04-20T16:41:40.540Z,2.20
2019-04-20T16:44:11.333Z,2.03
2019-04-20T16:46:42.397Z,2.10
2019-04-20T16:49:15.407Z,2.23
2019-04-20T16:51:45.223Z,2.00
2019-04-20T16:54:14.926Z,1.93
2019-04-20T16:56:46.638Z,2.00
2019-04-20T16:59:19.616Z,2.20
2019-04-20T17:01:50.677Z,1.93
2019-04-20T17:04:22.527Z,2.00
2019-04-20T17:07:20.716Z,2.23
2019-04-20T17:09:51.857Z,1.83
2019-04-20T17:12:21.798Z,2.13
2019-04-20T17:14:51.703Z,2.23
2019-04-20T17:17:21.972Z,2.07
2019-04-20T17:19:51.659Z,2.90
2019-04-20T17:22:21.631Z,2.43
2019-04-20T17:24:53.614Z,3.07
2019-04-20T17:27:42.507Z,4.77
2019-04-20T17:30:50.526Z,3.20
2019-04-20T17:33:26.218Z,3.73
2019-04-20T17:36:05.484Z,3.00
2019-04-20T17:38:36.095Z,2.97
2019-04-20T17:41:13.291Z,2.40
2019-04-20T17:43:43.772Z,2.90
2019-04-20T17:46:10.085Z,2.37
2019-04-20T17:48:45.327Z,2.60
2019-04-20T17:51:30.344Z,2.70
2019-04-20T17:54:06.890Z,3.27
2019-04-20T17:56:40.365Z,2.20
2019-04-20T17:59:10.675Z,5.70
2019-04-20T18:02:11.815Z,3.10
2019-04-20T18:05:11.007Z,2.30
2019-04-20T18:07:35.046Z,2.93
2019-04-20T18:10:03.092Z,2.70
2019-04-20T18:12:23.262Z,3.20
2019-04-20T18:15:00.649Z,2.90
2019-04-20T18:17:54.655Z,9.90
2019-04-20T18:20:34.807Z,2.87
2019-04-20T18:23:06.612Z,3.33
2019-04-20T18:26:00.074Z,3.10
2019-04-20T18:28:19.615Z,2.63
2019-04-20T18:31:00.194Z,3.40
2019-04-20T18:33:29.952Z,4.23
2019-04-20T18:35:56.586Z,4.53
2019-04-20T18:38:26.304Z,3.23
2019-04-20T18:41:02.730Z,3.57
2019-04-20T18:43:29.614Z,3.37
2019-04-20T18:46:18.012Z,5.63
2019-04-20T18:48:48.428Z,3.83
2019-04-20T18:51:03.824Z,3.60
2019-04-20T18:53:39.502Z,3.53
2019-04-20T18:56:06.413Z,3.70
2019-04-20T18:58:37.430Z,3.70
2019-04-20T19:01:07.530Z,3.33
2019-04-20T19:03:40.671Z,3.43
2019-04-20T19:06:09.493Z,3.80
2019-04-20T19:08:46.350Z,3.50
2019-04-20T19:11:15.235Z,3.13
2019-04-20T19:13:49.842Z,3.47
2019-04-20T19:16:37.570Z,3.40
2019-04-20T19:19:20.174Z,3.40
2019-04-20T19:21:40.337Z,4.23
2019-04-20T19:24:13.308Z,4.07
2019-04-20T19:26:48.135Z,3.10
2019-04-20T19:29:20.416Z,3.00
2019-04-20T19:32:05.646Z,2.83
2019-04-20T19:34:34.951Z,3.33
2019-04-20T19:37:00.908Z,4.37
2019-04-20T19:39:32.123Z,3.80
2019-04-20T19:41:59.731Z,3.00
2019-04-20T19:44:38.085Z,4.67
2019-04-20T19:47:16.906Z,5.27
2019-04-20T19:49:37.088Z,2.93
2019-04-20T19:54:50.339Z,3.20
2019-04-20T19:57:22.246Z,3.37
2019-04-20T19:59:39.871Z,2.90
2019-04-20T20:02:05.438Z,2.87
2019-04-20T20:04:42.545Z,3.23
2019-04-20T20:07:15.715Z,3.30
2019-04-20T20:09:45.571Z,2.97
2019-04-20T20:12:14.727Z,3.30
2019-04-20T20:14:46.040Z,2.63
2019-04-20T20:17:33.157Z,2.60
2019-04-20T20:20:14.728Z,2.63
2019-04-20T20:22:27.841Z,2.90
2019-04-20T20:24:49.398Z,2.60
2019-04-20T20:27:28.572Z,2.90
2019-04-20T20:29:59.527Z,2.70
2019-04-20T20:32:44.772Z,3.13
2019-04-20T20:35:10.041Z,3.30
2019-04-20T20:37:39.709Z,2.90
2019-04-20T20:40:16.108Z,3.37
2019-04-20T20:42:49.126Z,3.30
2019-04-20T20:45:19.734Z,2.90
2019-04-20T20:48:01.628Z,2.70
2019-04-20T20:50:33.759Z,3.33
2019-04-20T20:52:57.582Z,4.50
2019-04-20T20:55:25.558Z,3.00
2019-04-20T20:57:59.183Z,3.93
2019-04-20T21:00:35.880Z,3.30
2019-04-20T21:02:59.283Z,2.80
2019-04-20T21:05:27.332Z,3.07
2019-04-20T21:07:57.505Z,3.40
2019-04-20T21:10:33.087Z,3.90
2019-04-20T21:13:03.014Z,3.70
2019-04-20T21:15:32.965Z,3.40
2019-04-20T21:18:29.326Z,4.07
2019-04-20T21:20:53.686Z,3.83
2019-04-20T21:23:18.708Z,4.23
2019-04-20T21:25:47.576Z,4.63
2019-04-20T21:28:15.094Z,4.20
2019-04-20T21:30:48.358Z,4.37
2019-04-20T21:33:16.759Z,5.17
2019-04-20T21:35:50.499Z,4.33
2019-04-20T21:38:20.216Z,4.00
2019-04-20T21:40:59.722Z,4.50
2019-04-20T21:43:29.025Z,4.47
2019-04-20T21:45:59.428Z,4.30
2019-04-20T21:48:45.173Z,4.07
2019-04-20T21:51:16.530Z,3.57
2019-04-20T21:53:35.906Z,4.30
2019-04-20T21:56:08.105Z,5.77
2019-04-20T21:58:43.534Z,4.77
2019-04-20T22:01:18.622Z,4.50
2019-04-20T22:03:42.584Z,4.40
2019-04-20T22:06:13.943Z,4.37
2019-04-20T22:08:51.796Z,4.33
2019-04-20T22:11:17.881Z,4.30
2019-04-20T22:13:49.395Z,4.30
2019-04-20T22:16:22.174Z,4.07
2019-04-20T22:19:10.397Z,4.40
2019-04-20T22:21:35.518Z,4.30
2019-04-20T22:24:07.947Z,3.77
2019-04-20T22:26:34.374Z,4.03
2019-04-20T22:29:00.473Z,4.10
2019-04-20T22:31:30.295Z,4.23
2019-04-20T22:34:06.225Z,4.00
2019-04-20T22:36:36.745Z,4.20
2019-04-20T22:39:11.853Z,4.30
2019-04-20T22:41:59.314Z,4.13
2019-04-20T22:44:28.315Z,4.40
2019-04-20T22:46:56.440Z,3.50
2019-04-20T22:49:40.067Z,3.83
2019-04-20T22:52:13.269Z,3.90
2019-04-20T22:54:44.667Z,3.70
2019-04-20T22:57:19.307Z,3.80
2019-04-20T22:59:49.407Z,4.00
2019-04-20T23:02:09.829Z,3.50
2019-04-20T23:04:40.483Z,3.57
2019-04-20T23:07:10.700Z,3.37
2019-04-20T23:09:50.327Z,3.87
2019-04-20T23:12:17.795Z,3.60
2019-04-20T23:14:44.764Z,4.23
2019-04-20T23:17:18.131Z,3.70
2019-04-20T23:19:50.944Z,4.10
2019-04-20T23:22:17.880Z,3.73
2019-04-20T23:24:53.298Z,3.73
2019-04-20T23:27:29.354Z,4.20
2019-04-20T23:29:55.620Z,3.80
2019-04-20T23:32:28.633Z,3.73
2019-04-20T23:35:03.910Z,3.23
2019-04-20T23:37:32.114Z,3.60
2019-04-20T23:40:00.463Z,3.70
2019-04-20T23:42:44.152Z,3.73
2019-04-20T23:45:36.934Z,3.90
2019-04-20T23:48:08.495Z,4.20
2019-04-20T23:50:54.193Z,3.37
2019-04-20T23:53:28.448Z,3.70
2019-04-20T23:55:43.701Z,3.87
2019-04-20T23:58:14.675Z,3.70
